Positano Jet — IFTU — position and weather

sailwx.info

Track history (hours):
 
Tides and Currents Weather Stations Pressure Air Temp Water Temp Dewpoint Dewpoint Depression Visibility Wind Speed Wind Dir Waves Ship Positions

Positano Jet

Last reported at 2015-Oct-27 16:06 UTC. Time now 2016-Feb-07 03:55 UTC.
Position N 40°43' E 014°28'.
Warning: this ship's position is months out of date.

Length 23 m; draft 2 m.

Type: Ship. MMSI: 247160800.

Date/timePositionNaut miles runAvg speedWind from/ knotsBaromVisibWave heightAir tempDewpointWater temp
2015-Oct-27 16:06N 40°43' E 014°28'713.8
2015-Oct-27 15:34N 40°38' E 014°21'4 3.6
2015-Oct-27 14:29N 40°35' E 014°22'6 6.5
2015-Oct-27 13:33N 40°33' E 014°14'0 0.0
2015-Oct-27 12:33N 40°33' E 014°14'0 0.0
2015-Oct-27 11:33N 40°33' E 014°14'0 0.0
2015-Oct-27 10:33N 40°33' E 014°14'1211.8
2015-Oct-27 09:34N 40°37' E 014°29'6 0.3
2015-Oct-26 14:33N 40°35' E 014°22'4 3.5
2015-Oct-26 13:29N 40°38' E 014°21'4 4.7
2015-Oct-26 12:33N 40°42' E 014°24'3 3.3
2015-Oct-26 11:34N 40°43' E 014°28'9 8.8
2015-Oct-26 10:33N 40°37' E 014°20'7 7.0
2015-Oct-26 09:33N 40°37' E 014°29'6 0.3
2015-Oct-25 14:29N 40°35' E 014°22'6 6.2
2015-Oct-25 13:33N 40°33' E 014°14'0 0.0
2015-Oct-25 12:34N 40°33' E 014°14'0 0.0
2015-Oct-25 11:32N 40°33' E 014°14'0 0.0
2015-Oct-25 10:33N 40°33' E 014°14'12 0.7
2015-Oct-24 16:33N 40°37' E 014°29'1010.1
2015-Oct-24 15:33N 40°34' E 014°17'4 1.8
2015-Oct-24 13:29N 40°35' E 014°22'6 6.0
2015-Oct-24 12:33N 40°33' E 014°14'0 0.0
2015-Oct-24 11:33N 40°33' E 014°14'0 0.0
2015-Oct-24 10:33N 40°33' E 014°14'0 0.0
2015-Oct-24 09:33N 40°33' E 014°14'12 8.8
2015-Oct-24 08:11N 40°37' E 014°29'0 0.0
2015-Oct-23 17:31N 40°37' E 014°29'1111.3
2015-Oct-23 16:33N 40°45' E 014°19'4 3.5
2015-Oct-23 15:33N 40°43' E 014°15'10 9.7
2015-Oct-23 14:33N 40°33' E 014°14'1 0.3
2015-Oct-23 11:32N 40°33' E 014°15'1 0.5
2015-Oct-23 09:27N 40°33' E 014°16'6 6.2
2015-Oct-23 08:33N 40°39' E 014°15'1110.5
2015-Oct-23 07:31N 40°49' E 014°17'3 3.4
2015-Oct-23 06:29N 40°46' E 014°18'1211.2
2015-Oct-23 05:26N 40°37' E 014°29'0 0.0
2015-Oct-21 14:05N 40°37' E 014°29'813.8
2015-Oct-21 13:32N 40°34' E 014°20'5 4.6
2015-Oct-21 12:33N 40°33' E 014°14'0 0.0
2015-Oct-21 11:33N 40°33' E 014°14'0 0.0
2015-Oct-21 10:32N 40°33' E 014°14'0 0.0
2015-Oct-21 09:33N 40°33' E 014°14'6 0.1
2015-Oct-19 13:29N 40°35' E 014°22'6 6.7
2015-Oct-19 12:33N 40°33' E 014°14'0 0.0
2015-Oct-19 11:33N 40°33' E 014°14'0 0.0
2015-Oct-19 10:33N 40°33' E 014°14'0 0.0
2015-Oct-19 09:33N 40°33' E 014°14'1211.7
2015-Oct-19 08:33N 40°37' E 014°29'0 0.0
2015-Oct-18 16:33N 40°37' E 014°29'10 9.7
2015-Oct-18 15:33N 40°34' E 014°17'3 1.2
2015-Oct-18 13:26N 40°34' E 014°20'3 3.8
2015-Oct-18 12:33N 40°37' E 014°19'4 4.5
2015-Oct-18 11:33N 40°40' E 014°24'5 4.6
2015-Oct-18 10:32N 40°43' E 014°28'9 8.8
2015-Oct-18 09:33N 40°38' E 014°20'7 6.4
2015-Oct-18 08:26N 40°38' E 014°29'  
Track history (hours):
 
Tides and Currents Weather Stations Pressure Air Temp Water Temp Dewpoint Dewpoint Depression Visibility Wind Speed Wind Dir Waves Ship Positions

Positano Jet

Last reported at 2015-Oct-27 16:06 UTC. Time now 2016-Feb-07 03:55 UTC.
Position N 40°43' E 014°28'.
Warning: this ship's position is months out of date.

Length 23 m; draft 2 m.

Type: Ship. MMSI: 247160800.

Date/timePositionNaut miles runAvg speedWind from/ knotsBaromVisibWave heightAir tempDewpointWater temp
2015-Oct-27 16:06N 40°43' E 014°28'713.8
2015-Oct-27 15:34N 40°38' E 014°21'4 3.6
2015-Oct-27 14:29N 40°35' E 014°22'6 6.5
2015-Oct-27 13:33N 40°33' E 014°14'0 0.0
2015-Oct-27 12:33N 40°33' E 014°14'0 0.0
2015-Oct-27 11:33N 40°33' E 014°14'0 0.0
2015-Oct-27 10:33N 40°33' E 014°14'1211.8
2015-Oct-27 09:34N 40°37' E 014°29'6 0.3
2015-Oct-26 14:33N 40°35' E 014°22'4 3.5
2015-Oct-26 13:29N 40°38' E 014°21'4 4.7
2015-Oct-26 12:33N 40°42' E 014°24'3 3.3
2015-Oct-26 11:34N 40°43' E 014°28'9 8.8
2015-Oct-26 10:33N 40°37' E 014°20'7 7.0
2015-Oct-26 09:33N 40°37' E 014°29'6 0.3
2015-Oct-25 14:29N 40°35' E 014°22'6 6.2
2015-Oct-25 13:33N 40°33' E 014°14'0 0.0
2015-Oct-25 12:34N 40°33' E 014°14'0 0.0
2015-Oct-25 11:32N 40°33' E 014°14'0 0.0
2015-Oct-25 10:33N 40°33' E 014°14'12 0.7
2015-Oct-24 16:33N 40°37' E 014°29'1010.1
2015-Oct-24 15:33N 40°34' E 014°17'4 1.8
2015-Oct-24 13:29N 40°35' E 014°22'6 6.0
2015-Oct-24 12:33N 40°33' E 014°14'0 0.0
2015-Oct-24 11:33N 40°33' E 014°14'0 0.0
2015-Oct-24 10:33N 40°33' E 014°14'0 0.0
2015-Oct-24 09:33N 40°33' E 014°14'12 8.8
2015-Oct-24 08:11N 40°37' E 014°29'0 0.0
2015-Oct-23 17:31N 40°37' E 014°29'1111.3
2015-Oct-23 16:33N 40°45' E 014°19'4 3.5
2015-Oct-23 15:33N 40°43' E 014°15'10 9.7
2015-Oct-23 14:33N 40°33' E 014°14'1 0.3
2015-Oct-23 11:32N 40°33' E 014°15'1 0.5
2015-Oct-23 09:27N 40°33' E 014°16'6 6.2
2015-Oct-23 08:33N 40°39' E 014°15'1110.5
2015-Oct-23 07:31N 40°49' E 014°17'3 3.4
2015-Oct-23 06:29N 40°46' E 014°18'1211.2
2015-Oct-23 05:26N 40°37' E 014°29'0 0.0
2015-Oct-21 14:05N 40°37' E 014°29'813.8
2015-Oct-21 13:32N 40°34' E 014°20'5 4.6
2015-Oct-21 12:33N 40°33' E 014°14'0 0.0
2015-Oct-21 11:33N 40°33' E 014°14'0 0.0
2015-Oct-21 10:32N 40°33' E 014°14'0 0.0
2015-Oct-21 09:33N 40°33' E 014°14'6 0.1
2015-Oct-19 13:29N 40°35' E 014°22'6 6.7
2015-Oct-19 12:33N 40°33' E 014°14'0 0.0
2015-Oct-19 11:33N 40°33' E 014°14'0 0.0
2015-Oct-19 10:33N 40°33' E 014°14'0 0.0
2015-Oct-19 09:33N 40°33' E 014°14'1211.7
2015-Oct-19 08:33N 40°37' E 014°29'0 0.0
2015-Oct-18 16:33N 40°37' E 014°29'10 9.7
2015-Oct-18 15:33N 40°34' E 014°17'3 1.2
2015-Oct-18 13:26N 40°34' E 014°20'3 3.8
2015-Oct-18 12:33N 40°37' E 014°19'4 4.5
2015-Oct-18 11:33N 40°40' E 014°24'5 4.6
2015-Oct-18 10:32N 40°43' E 014°28'9 8.8
2015-Oct-18 09:33N 40°38' E 014°20'7 6.4
2015-Oct-18 08:26N 40°38' E 014°29'  

Dump ship's entire track history